Time;durP1;ratioP1;P1;durP2;ratioP2;P2;SDS_P1;SDS_P2;PMS_P1;PMS_P2;Temp;Humidity;BMP_temperature;BMP_pressure;BME280_temperature;BME280_humidity;BME280_pressure;Samples;Min_cycle;Max_cycle;Signal;HPM_P1;HPM_P2
2023/09/07 00:00:36;;;;;;;5.10;4.60;;;20.50;99.90;;;;;;4952909;28;20480;-75
2023/09/07 00:03:02;;;;;;;6.17;4.63;;;20.50;99.90;;;;;;4948438;28;20246;-74
2023/09/07 00:05:27;;;;;;;8.63;5.03;;;20.50;99.90;;;;;;4946011;28;20799;-75
2023/09/07 00:07:53;;;;;;;4.93;3.90;;;20.40;99.90;;;;;;4945030;28;20241;-72
2023/09/07 00:10:19;;;;;;;5.37;4.87;;;20.30;99.90;;;;;;4948658;28;20274;-74
2023/09/07 00:12:45;;;;;;;6.33;5.00;;;20.30;99.90;;;;;;4946925;28;20238;-75
2023/09/07 00:15:11;;;;;;;5.30;4.53;;;20.20;99.90;;;;;;4944949;28;20252;-75
2023/09/07 00:17:37;;;;;;;5.90;4.17;;;20.20;99.90;;;;;;4932421;28;20587;-74
2023/09/07 00:20:36;;;;;;;5.40;4.50;;;20.20;99.90;;;;;;4966893;28;20667;-75
2023/09/07 00:22:55;;;;;;;5.17;4.67;;;20.20;99.90;;;;;;4954604;28;20336;-75
2023/09/07 00:25:21;;;;;;;4.57;3.87;;;20.20;99.90;;;;;;4946302;28;20516;-74
2023/09/07 00:27:47;;;;;;;4.77;4.37;;;20.20;99.90;;;;;;4952601;28;20234;-74
2023/09/07 00:30:14;;;;;;;5.47;4.57;;;20.00;99.90;;;;;;4957346;28;20472;-75
2023/09/07 00:32:40;;;;;;;6.07;4.90;;;20.10;99.90;;;;;;4950805;28;20353;-75
2023/09/07 00:35:06;;;;;;;5.77;4.47;;;20.10;99.90;;;;;;4955688;28;20478;-74
2023/09/07 00:37:33;;;;;;;5.20;4.70;;;20.10;99.90;;;;;;4965115;28;20300;-74
2023/09/07 00:39:58;;;;;;;5.07;4.13;;;20.00;99.90;;;;;;4950166;28;20474;-74
2023/09/07 00:42:24;;;;;;;5.43;4.27;;;19.90;99.90;;;;;;4949953;28;20468;-73
2023/09/07 00:44:50;;;;;;;4.80;4.30;;;19.80;99.90;;;;;;4950508;28;20264;-74
2023/09/07 00:47:16;;;;;;;4.50;4.00;;;19.60;99.90;;;;;;4932928;28;20226;-73
2023/09/07 00:49:42;;;;;;;5.13;4.33;;;19.70;99.90;;;;;;4956134;28;20591;-73
2023/09/07 00:52:09;;;;;;;5.50;4.80;;;19.70;99.90;;;;;;4950638;28;20508;-73
2023/09/07 00:54:38;;;;;;;4.80;4.40;;;19.80;99.90;;;;;;4928290;28;20481;-73
2023/09/07 00:57:05;;;;;;;8.00;4.70;;;19.80;99.90;;;;;;4950664;28;20476;-74
2023/09/07 00:59:32;;;;;;;4.80;3.87;;;19.80;99.90;;;;;;4949213;28;20478;-74
2023/09/07 01:01:58;;;;;;;5.30;4.37;;;19.70;99.90;;;;;;4939988;28;20545;-74
2023/09/07 01:04:24;;;;;;;6.20;5.00;;;19.50;99.90;;;;;;4954458;28;21102;-74
2023/09/07 01:06:59;;;;;;;4.70;4.30;;;19.60;99.90;;;;;;4948917;28;20237;-74
2023/09/07 01:09:28;;;;;;;4.30;4.00;;;19.60;99.90;;;;;;4948265;28;20225;-74
2023/09/07 01:11:54;;;;;;;4.37;3.97;;;19.70;99.90;;;;;;4951781;28;20601;-74
2023/09/07 01:14:20;;;;;;;4.70;3.93;;;19.70;99.90;;;;;;4957381;28;20469;-74
2023/09/07 01:16:45;;;;;;;7.60;4.50;;;19.70;99.90;;;;;;4949249;28;20241;-73
2023/09/07 01:19:11;;;;;;;4.67;3.57;;;19.60;99.90;;;;;;4964989;28;20432;-74
2023/09/07 01:21:38;;;;;;;6.73;4.17;;;19.70;99.90;;;;;;4964596;28;20234;-74
2023/09/07 01:24:12;;;;;;;4.20;3.80;;;19.60;99.90;;;;;;4946015;28;20242;-74
2023/09/07 01:26:40;;;;;;;5.60;4.43;;;19.50;99.90;;;;;;4949094;28;20672;-74
2023/09/07 01:29:08;;;;;;;5.00;4.00;;;19.50;99.90;;;;;;4964236;28;20465;-73
2023/09/07 01:31:38;;;;;;;4.90;4.47;;;19.50;99.90;;;;;;4932513;28;20474;-74
2023/09/07 01:34:08;;;;;;;4.07;3.63;;;19.50;99.90;;;;;;4949558;28;20555;-74
2023/09/07 01:36:35;;;;;;;5.90;3.87;;;19.40;99.90;;;;;;4948084;28;20486;-74
2023/09/07 01:39:03;;;;;;;4.60;3.97;;;19.40;99.90;;;;;;4950714;28;20504;-74
2023/09/07 01:41:29;;;;;;;4.30;3.90;;;19.40;99.90;;;;;;4949277;28;20556;-74
2023/09/07 01:43:56;;;;;;;5.00;4.07;;;19.40;99.90;;;;;;4933778;28;20529;-74
2023/09/07 01:46:21;;;;;;;3.63;3.33;;;19.40;99.90;;;;;;4963531;28;20474;-74
2023/09/07 01:48:47;;;;;;;4.60;4.20;;;19.40;99.90;;;;;;4948324;28;20242;-73
2023/09/07 01:51:12;;;;;;;5.10;4.60;;;19.30;99.90;;;;;;4933431;28;20263;-74
2023/09/07 01:53:38;;;;;;;4.40;4.00;;;19.30;99.90;;;;;;4949067;28;20235;-73
2023/09/07 01:56:05;;;;;;;4.37;3.97;;;19.30;99.90;;;;;;4942591;28;20249;-73
2023/09/07 01:58:31;;;;;;;4.50;4.10;;;19.20;99.90;;;;;;4955192;28;20475;-74
2023/09/07 02:00:57;;;;;;;4.70;4.30;;;19.10;99.90;;;;;;4950363;28;20231;-71
2023/09/07 02:03:23;;;;;;;4.27;3.87;;;19.10;99.90;;;;;;4949052;28;20230;-72
2023/09/07 02:05:49;;;;;;;3.70;3.33;;;19.00;99.90;;;;;;4947636;28;20610;-74
2023/09/07 02:08:14;;;;;;;5.00;4.33;;;19.00;99.90;;;;;;4949683;28;20230;-73
2023/09/07 02:10:40;;;;;;;5.13;3.60;;;19.10;99.90;;;;;;4965008;28;20799;-74
2023/09/07 02:13:06;;;;;;;7.70;4.23;;;19.10;99.90;;;;;;4932546;28;20313;-73
2023/09/07 02:15:31;;;;;;;4.90;4.20;;;19.20;99.90;;;;;;4962821;28;20230;-73
2023/09/07 02:17:57;;;;;;;4.00;3.70;;;19.20;99.90;;;;;;4965344;28;20241;-73
2023/09/07 02:20:23;;;;;;;8.17;4.17;;;19.00;99.90;;;;;;4947810;28;20402;-73
2023/09/07 02:22:48;;;;;;;8.33;3.97;;;19.00;99.90;;;;;;4956515;28;20230;-74
2023/09/07 02:25:14;;;;;;;6.70;3.80;;;19.00;99.90;;;;;;4950045;28;20235;-73
2023/09/07 02:27:40;;;;;;;3.90;3.50;;;18.90;99.90;;;;;;4945885;28;20238;-73
2023/09/07 02:30:06;;;;;;;7.93;4.07;;;18.90;99.90;;;;;;4964510;28;20222;-72
2023/09/07 02:32:32;;;;;;;6.80;4.23;;;18.90;99.90;;;;;;4944832;28;20222;-73
2023/09/07 02:34:58;;;;;;;4.40;4.00;;;18.70;99.90;;;;;;4965079;28;20473;-72
2023/09/07 02:37:24;;;;;;;5.57;3.37;;;18.80;99.90;;;;;;4932226;28;20216;-73
2023/09/07 02:39:50;;;;;;;5.60;4.50;;;18.80;99.90;;;;;;4962781;28;20625;-73
2023/09/07 02:42:16;;;;;;;9.77;4.07;;;18.90;99.90;;;;;;4929616;28;20473;-73
2023/09/07 02:44:41;;;;;;;4.07;3.70;;;18.80;99.90;;;;;;4951491;28;20218;-73
2023/09/07 02:47:07;;;;;;;4.27;3.70;;;18.80;99.90;;;;;;4948329;28;20280;-73
2023/09/07 02:49:33;;;;;;;4.80;4.40;;;18.80;99.90;;;;;;4961422;28;20260;-73
2023/09/07 02:51:59;;;;;;;5.67;3.90;;;18.80;99.90;;;;;;4949925;28;20972;-73
2023/09/07 02:54:25;;;;;;;7.13;4.70;;;18.80;99.90;;;;;;4947906;28;20893;-73
2023/09/07 02:56:50;;;;;;;4.80;4.27;;;18.80;99.90;;;;;;4964229;28;20293;-73
2023/09/07 02:59:16;;;;;;;5.33;3.80;;;18.80;99.90;;;;;;4954980;28;20238;-73
2023/09/07 03:01:42;;;;;;;4.73;3.90;;;18.80;99.90;;;;;;4962807;28;20226;-73
2023/09/07 03:04:07;;;;;;;4.30;3.77;;;18.80;99.90;;;;;;4962516;28;20231;-72
2023/09/07 03:06:34;;;;;;;15.53;3.70;;;18.80;99.90;;;;;;4947751;28;20233;-73
2023/09/07 03:09:00;;;;;;;4.53;3.80;;;18.80;99.90;;;;;;4954459;28;20482;-73
2023/09/07 03:11:26;;;;;;;6.10;4.10;;;18.70;99.90;;;;;;4962390;28;20799;-73
2023/09/07 03:13:52;;;;;;;5.80;3.73;;;18.70;99.90;;;;;;4948971;28;20238;-73
2023/09/07 03:16:18;;;;;;;4.80;3.63;;;18.70;99.90;;;;;;4937292;28;20474;-74
2023/09/07 03:18:44;;;;;;;3.73;3.43;;;18.60;99.90;;;;;;4949644;28;21113;-73
2023/09/07 03:21:10;;;;;;;4.30;3.97;;;18.60;99.90;;;;;;4947955;28;20230;-72
2023/09/07 03:23:36;;;;;;;4.57;3.83;;;18.50;99.90;;;;;;4960940;28;20465;-73
2023/09/07 03:26:02;;;;;;;3.53;3.23;;;18.50;99.90;;;;;;4933088;28;20234;-72
2023/09/07 03:28:29;;;;;;;5.10;3.70;;;18.50;99.90;;;;;;4954053;28;20468;-73
2023/09/07 03:30:55;;;;;;;4.43;4.03;;;18.50;99.90;;;;;;4964978;28;20597;-74
2023/09/07 03:33:21;;;;;;;5.90;4.73;;;18.40;99.90;;;;;;4946435;28;20231;-73
2023/09/07 03:35:47;;;;;;;6.43;4.20;;;18.40;99.90;;;;;;4928421;28;20640;-72
2023/09/07 03:38:13;;;;;;;3.90;3.50;;;18.40;99.90;;;;;;4929882;28;20999;-73
2023/09/07 03:40:39;;;;;;;7.47;4.50;;;18.40;99.90;;;;;;4963215;28;24702;-73
2023/09/07 03:43:05;;;;;;;3.83;3.53;;;18.50;99.90;;;;;;4964457;28;20477;-73
2023/09/07 03:45:31;;;;;;;5.00;3.83;;;18.50;99.90;;;;;;4947003;28;20311;-72
2023/09/07 03:47:56;;;;;;;5.23;3.30;;;18.50;99.90;;;;;;4959029;28;20257;-73
2023/09/07 03:50:23;;;;;;;3.90;3.60;;;18.40;99.90;;;;;;4941988;28;20224;-73
2023/09/07 03:52:48;;;;;;;5.20;4.13;;;18.40;99.90;;;;;;4944876;28;20481;-71
2023/09/07 03:55:14;;;;;;;5.97;4.40;;;18.40;99.90;;;;;;4952384;28;20261;-71
2023/09/07 03:57:40;;;;;;;6.43;3.50;;;18.40;99.90;;;;;;4963749;28;20644;-72
2023/09/07 04:00:08;;;;;;;5.10;4.03;;;18.40;99.90;;;;;;4959699;28;20345;-73
2023/09/07 04:02:43;;;;;;;5.10;4.60;;;18.30;99.90;;;;;;4944060;28;20222;-73
2023/09/07 04:05:10;;;;;;;5.30;4.27;;;18.30;99.90;;;;;;4927028;28;20470;-73
2023/09/07 04:07:37;;;;;;;6.93;4.03;;;18.30;99.90;;;;;;4945319;28;20242;-72
2023/09/07 04:10:02;;;;;;;6.30;3.63;;;18.30;99.90;;;;;;4934055;28;20555;-72
2023/09/07 04:12:28;;;;;;;4.43;4.03;;;18.30;99.90;;;;;;4943574;28;20576;-72
2023/09/07 04:14:54;;;;;;;4.23;3.57;;;18.30;99.90;;;;;;4946325;28;20914;-73
2023/09/07 04:17:19;;;;;;;4.43;4.03;;;18.30;99.90;;;;;;4960642;28;20837;-73
2023/09/07 04:19:45;;;;;;;6.67;4.17;;;18.30;99.90;;;;;;4932895;28;20230;-73
2023/09/07 04:22:11;;;;;;;4.30;3.90;;;18.30;99.90;;;;;;4952956;28;20512;-73
2023/09/07 04:24:37;;;;;;;4.47;4.07;;;18.30;99.90;;;;;;4946537;28;20353;-72
2023/09/07 04:27:04;;;;;;;4.73;4.13;;;18.30;99.90;;;;;;4942963;28;20465;-74
2023/09/07 04:29:32;;;;;;;4.03;3.63;;;18.20;99.90;;;;;;4947822;28;20476;-73
2023/09/07 04:31:58;;;;;;;4.20;3.80;;;18.20;99.90;;;;;;4947102;28;20469;-73
2023/09/07 04:34:24;;;;;;;5.50;4.53;;;18.20;99.90;;;;;;4927932;28;20232;-72
2023/09/07 04:36:51;;;;;;;4.50;4.00;;;17.90;99.90;;;;;;4930156;28;20349;-74
2023/09/07 04:39:16;;;;;;;4.93;4.43;;;18.00;99.90;;;;;;4948946;28;20458;-73
2023/09/07 04:41:43;;;;;;;5.43;4.10;;;18.00;99.90;;;;;;4949085;28;20833;-73
2023/09/07 04:44:08;;;;;;;4.90;4.27;;;18.00;99.90;;;;;;4962845;28;20478;-73
2023/09/07 04:46:34;;;;;;;4.17;3.50;;;18.10;99.90;;;;;;4941129;28;20234;-74
2023/09/07 04:49:01;;;;;;;6.07;5.57;;;18.10;99.90;;;;;;4929291;28;20477;-73
2023/09/07 04:51:26;;;;;;;4.60;4.10;;;18.10;99.90;;;;;;4941630;28;20465;-74
2023/09/07 04:53:53;;;;;;;4.93;4.40;;;18.10;99.90;;;;;;4949863;28;20242;-73
2023/09/07 04:56:20;;;;;;;5.57;4.17;;;18.10;99.90;;;;;;4943906;28;20597;-73
2023/09/07 04:58:45;;;;;;;4.73;3.57;;;18.00;99.90;;;;;;4953297;28;20977;-72
2023/09/07 05:01:12;;;;;;;6.57;4.30;;;18.00;99.90;;;;;;4943923;28;20528;-71
2023/09/07 05:03:41;;;;;;;5.30;4.10;;;18.00;99.90;;;;;;4940836;28;20264;-73
2023/09/07 05:06:08;;;;;;;7.00;4.00;;;18.00;99.90;;;;;;4929139;28;20588;-72
2023/09/07 05:08:34;;;;;;;8.43;4.00;;;17.90;99.90;;;;;;4935872;28;21074;-71
2023/09/07 05:11:02;;;;;;;5.60;4.00;;;17.90;99.90;;;;;;4964478;28;20218;-72
2023/09/07 05:13:29;;;;;;;5.43;4.57;;;18.00;99.90;;;;;;4947689;28;20505;-72
2023/09/07 05:15:56;;;;;;;4.90;3.90;;;17.90;99.90;;;;;;4932911;28;20513;-73
2023/09/07 05:18:22;;;;;;;4.80;4.20;;;17.90;99.90;;;;;;4946084;28;20476;-74
2023/09/07 05:20:49;;;;;;;4.80;4.30;;;17.90;99.90;;;;;;4946076;28;20474;-73
2023/09/07 05:23:17;;;;;;;4.07;3.67;;;17.90;99.90;;;;;;4947904;28;21093;-72
2023/09/07 05:25:53;;;;;;;7.40;4.80;;;17.90;99.90;;;;;;4963842;28;20458;-73
2023/09/07 05:28:22;;;;;;;6.00;4.50;;;18.00;99.90;;;;;;4948260;28;20472;-73
2023/09/07 05:30:49;;;;;;;5.60;4.77;;;17.90;99.90;;;;;;4947647;28;20474;-73
2023/09/07 05:33:16;;;;;;;5.03;4.17;;;18.00;99.90;;;;;;4956958;28;20564;-73
2023/09/07 05:35:43;;;;;;;4.83;4.43;;;18.00;99.90;;;;;;4947749;28;20226;-73
2023/09/07 05:38:09;;;;;;;6.03;4.77;;;18.00;99.90;;;;;;4946819;28;20474;-73
2023/09/07 05:40:37;;;;;;;5.80;4.80;;;18.00;99.90;;;;;;4946278;28;20465;-72
2023/09/07 05:43:03;;;;;;;6.30;4.53;;;18.00;99.90;;;;;;4946309;28;20481;-71
2023/09/07 05:45:31;;;;;;;6.70;4.40;;;18.00;99.90;;;;;;4946818;28;20485;-73
2023/09/07 05:47:57;;;;;;;5.63;5.13;;;18.00;99.90;;;;;;4948174;28;20572;-72
2023/09/07 05:50:23;;;;;;;5.00;4.50;;;18.00;99.90;;;;;;4961801;28;20604;-72
2023/09/07 05:52:49;;;;;;;6.30;4.10;;;18.00;99.90;;;;;;4948442;28;20226;-72
2023/09/07 05:55:15;;;;;;;5.43;4.60;;;18.00;99.90;;;;;;4962393;28;20514;-72
2023/09/07 05:57:41;;;;;;;6.40;4.97;;;18.00;99.90;;;;;;4949848;28;20219;-72
2023/09/07 06:00:07;;;;;;;4.83;4.43;;;18.00;99.90;;;;;;4953724;28;20249;-73
2023/09/07 06:02:39;;;;;;;8.70;4.73;;;18.00;99.90;;;;;;4943865;28;20247;-73
2023/09/07 06:05:06;;;;;;;7.70;4.83;;;18.00;99.90;;;;;;4931895;28;20478;-73
2023/09/07 06:07:31;;;;;;;7.57;4.43;;;18.00;99.90;;;;;;4943016;28;20461;-73
2023/09/07 06:09:58;;;;;;;5.23;4.73;;;18.00;99.90;;;;;;4949058;28;20494;-73
2023/09/07 06:12:24;;;;;;;5.30;4.77;;;18.10;99.90;;;;;;4962685;28;20739;-72
2023/09/07 06:14:50;;;;;;;8.93;4.73;;;18.10;99.90;;;;;;4947168;28;20482;-73
2023/09/07 06:17:16;;;;;;;4.80;4.30;;;18.10;99.90;;;;;;4963799;28;20885;-74
2023/09/07 06:19:42;;;;;;;9.83;5.20;;;18.10;99.90;;;;;;4948665;28;20250;-74
2023/09/07 06:22:08;;;;;;;5.77;4.73;;;18.10;99.90;;;;;;4965294;28;20870;-74
2023/09/07 06:24:33;;;;;;;5.20;4.70;;;18.10;99.90;;;;;;4947075;28;20292;-73
2023/09/07 06:26:59;;;;;;;6.57;4.73;;;18.10;99.90;;;;;;4948108;28;20716;-74
2023/09/07 06:29:25;;;;;;;5.30;4.67;;;18.20;99.90;;;;;;4945101;28;20230;-73
2023/09/07 06:31:52;;;;;;;8.30;4.70;;;18.20;99.90;;;;;;4945303;28;20234;-74
2023/09/07 06:34:19;;;;;;;4.67;4.27;;;18.20;99.90;;;;;;4942370;28;20761;-74
2023/09/07 06:36:44;;;;;;;11.03;5.37;;;18.30;99.90;;;;;;4951979;28;20481;-73
2023/09/07 06:39:10;;;;;;;4.80;4.30;;;18.30;99.90;;;;;;4947759;28;20227;-74
2023/09/07 06:41:36;;;;;;;6.73;4.13;;;18.40;99.90;;;;;;4942919;28;20299;-74
2023/09/07 06:44:02;;;;;;;5.70;5.20;;;18.50;99.90;;;;;;4950113;28;20223;-74
2023/09/07 06:46:28;;;;;;;6.97;4.37;;;18.50;99.90;;;;;;4944410;28;20226;-73
2023/09/07 06:48:53;;;;;;;6.63;4.60;;;18.60;99.90;;;;;;4961613;28;20680;-73
2023/09/07 06:51:19;;;;;;;5.20;4.53;;;18.70;99.90;;;;;;4945426;28;20261;-73
2023/09/07 06:53:45;;;;;;;5.87;5.10;;;18.80;99.90;;;;;;4928588;28;20769;-73
2023/09/07 06:56:10;;;;;;;6.10;5.50;;;18.90;99.90;;;;;;4956194;28;20335;-74
2023/09/07 06:58:36;;;;;;;7.70;4.93;;;18.90;99.90;;;;;;4961748;28;20391;-73
2023/09/07 07:01:04;;;;;;;6.23;5.60;;;19.00;99.90;;;;;;4944509;28;20234;-72
2023/09/07 07:03:30;;;;;;;6.63;5.13;;;19.00;99.90;;;;;;4943615;28;20234;-73
2023/09/07 07:05:57;;;;;;;5.50;5.00;;;19.10;99.90;;;;;;4962194;28;20469;-72
2023/09/07 07:08:23;;;;;;;5.57;5.07;;;19.20;99.90;;;;;;4955713;28;20562;-73
2023/09/07 07:10:49;;;;;;;5.67;5.17;;;19.30;99.90;;;;;;4954281;28;20535;-72
2023/09/07 07:13:15;;;;;;;5.40;4.90;;;19.40;99.90;;;;;;4892519;28;20489;-72
2023/09/07 07:15:42;;;;;;;5.63;5.10;;;19.50;99.90;;;;;;4911406;28;20605;-73
2023/09/07 07:18:10;;;;;;;5.40;4.90;;;19.60;99.90;;;;;;4916430;28;20250;-73
2023/09/07 07:20:39;;;;;;;6.33;4.90;;;19.70;99.90;;;;;;4919035;28;20514;-73
2023/09/07 07:23:06;;;;;;;5.93;5.33;;;19.70;99.90;;;;;;4920827;28;20469;-72
2023/09/07 07:25:34;;;;;;;5.73;4.93;;;19.80;99.90;;;;;;4910801;28;20470;-73
2023/09/07 07:28:03;;;;;;;9.73;5.23;;;19.90;99.90;;;;;;4926915;28;21114;-72
2023/09/07 07:30:30;;;;;;;4.97;4.47;;;20.00;99.90;;;;;;4915606;28;20472;-74
2023/09/07 07:32:56;;;;;;;5.80;5.20;;;20.10;99.90;;;;;;4933648;28;20559;-73
2023/09/07 07:35:22;;;;;;;5.57;5.00;;;20.20;99.90;;;;;;4947602;28;20820;-73
2023/09/07 07:37:49;;;;;;;8.33;5.50;;;20.30;99.90;;;;;;4961488;28;20976;-73
2023/09/07 07:40:15;;;;;;;6.23;5.63;;;20.30;99.90;;;;;;4950104;28;20470;-74
2023/09/07 07:42:41;;;;;;;8.63;5.43;;;20.40;99.90;;;;;;4940911;28;20818;-74
2023/09/07 07:45:08;;;;;;;7.93;5.60;;;20.50;99.90;;;;;;4934563;28;20222;-73
2023/09/07 07:47:34;;;;;;;6.20;5.50;;;20.60;99.90;;;;;;4911026;28;20470;-73
2023/09/07 07:49:59;;;;;;;6.60;5.37;;;20.70;99.90;;;;;;4942347;28;20472;-75
2023/09/07 07:52:26;;;;;;;6.13;5.37;;;20.80;99.90;;;;;;4941262;28;20334;-74
2023/09/07 07:54:53;;;;;;;6.37;5.23;;;20.90;99.90;;;;;;4919518;28;20929;-73
2023/09/07 07:57:19;;;;;;;5.70;5.20;;;20.90;99.90;;;;;;4911047;28;20477;-74
2023/09/07 07:59:45;;;;;;;6.37;5.30;;;21.00;99.90;;;;;;4915694;28;21050;-74
2023/09/07 08:02:11;;;;;;;6.57;5.87;;;21.10;99.90;;;;;;4904923;28;21052;-73
2023/09/07 08:04:36;;;;;;;11.73;6.10;;;21.20;99.90;;;;;;4917911;28;20357;-74
2023/09/07 08:07:03;;;;;;;6.07;5.57;;;21.20;99.90;;;;;;4930694;28;20960;-75
2023/09/07 08:09:31;;;;;;;6.77;6.17;;;21.30;99.90;;;;;;4927472;28;21130;-74
2023/09/07 08:11:57;;;;;;;5.87;5.27;;;21.40;99.90;;;;;;4902887;28;20596;-74
2023/09/07 08:14:25;;;;;;;7.20;5.17;;;21.40;99.90;;;;;;4933166;28;20915;-74
2023/09/07 08:16:50;;;;;;;6.73;5.43;;;21.50;99.90;;;;;;4920070;28;20569;-75
2023/09/07 08:19:16;;;;;;;8.30;5.67;;;21.60;99.90;;;;;;4909811;28;20493;-74
2023/09/07 08:21:42;;;;;;;5.77;5.23;;;21.70;99.90;;;;;;4918031;28;20234;-74
2023/09/07 08:24:08;;;;;;;6.23;5.63;;;21.70;99.90;;;;;;4919334;28;20252;-73
2023/09/07 08:26:35;;;;;;;10.70;5.70;;;21.80;99.90;;;;;;4933302;28;21074;-76
2023/09/07 08:29:08;;;;;;;5.50;5.00;;;21.90;99.90;;;;;;4918820;28;20503;-74
2023/09/07 08:31:38;;;;;;;7.00;6.40;;;22.10;99.90;;;;;;4917455;28;20477;-73
2023/09/07 08:34:14;;;;;;;5.33;4.83;;;22.30;99.90;;;;;;4918640;28;20485;-75
2023/09/07 08:36:40;;;;;;;6.10;5.50;;;22.40;99.90;;;;;;4928530;28;20465;-74
2023/09/07 08:39:09;;;;;;;7.23;5.73;;;22.20;99.90;;;;;;4938074;28;20554;-73
2023/09/07 08:41:43;;;;;;;6.83;5.67;;;22.30;99.90;;;;;;4929758;28;20222;-75
2023/09/07 08:44:17;;;;;;;6.20;5.70;;;22.40;99.90;;;;;;4900184;28;20553;-74
2023/09/07 08:46:43;;;;;;;5.90;5.40;;;22.50;99.90;;;;;;4924475;28;20484;-74
2023/09/07 08:49:11;;;;;;;7.87;5.47;;;22.60;99.90;;;;;;4938511;28;20477;-73
2023/09/07 08:51:38;;;;;;;6.07;5.40;;;22.60;99.90;;;;;;4938936;28;20485;-75
2023/09/07 08:54:05;;;;;;;7.00;5.93;;;22.80;99.90;;;;;;4923182;28;20485;-74
2023/09/07 08:56:31;;;;;;;5.80;5.30;;;22.90;99.90;;;;;;4929383;28;20592;-75
2023/09/07 08:58:57;;;;;;;6.57;5.90;;;22.90;99.90;;;;;;4929809;28;21173;-75
2023/09/07 09:01:23;;;;;;;6.33;5.77;;;23.00;99.90;;;;;;4910166;28;20532;-75
2023/09/07 09:03:50;;;;;;;6.13;5.53;;;22.90;99.90;;;;;;4918885;28;20241;-75
2023/09/07 09:06:22;;;;;;;5.73;5.13;;;23.10;99.90;;;;;;4921385;28;20495;-75
2023/09/07 09:08:54;;;;;;;6.47;5.67;;;23.10;99.90;;;;;;4921567;28;20580;-75
2023/09/07 09:11:21;;;;;;;5.50;5.00;;;23.20;99.90;;;;;;4921434;28;20551;-74
2023/09/07 09:13:47;;;;;;;7.33;5.80;;;23.20;99.90;;;;;;4905395;28;20635;-75
2023/09/07 09:16:13;;;;;;;6.70;6.10;;;23.40;99.90;;;;;;4922690;28;20492;-74
2023/09/07 09:18:52;;;;;;;6.00;5.50;;;23.60;99.90;;;;;;4937319;28;20999;-75
2023/09/07 09:21:22;;;;;;;6.40;5.80;;;23.70;99.90;;;;;;4920988;28;21076;-75
2023/09/07 09:23:51;;;;;;;6.37;5.77;;;23.60;99.90;;;;;;4921276;28;20481;-75
2023/09/07 09:26:17;;;;;;;6.70;6.10;;;23.70;99.90;;;;;;4930555;28;20524;-75
2023/09/07 09:28:46;;;;;;;6.00;5.40;;;23.80;99.90;;;;;;4923313;28;21174;-75
2023/09/07 09:31:12;;;;;;;6.50;5.90;;;23.90;99.90;;;;;;4911583;28;21216;-75
2023/09/07 09:33:39;;;;;;;7.30;6.67;;;24.30;99.90;;;;;;4922372;28;20628;-75
2023/09/07 09:36:06;;;;;;;6.37;5.80;;;24.50;99.90;;;;;;4938217;28;20508;-74
2023/09/07 09:38:33;;;;;;;7.13;5.70;;;24.20;99.90;;;;;;4918551;28;21168;-76
2023/09/07 09:40:59;;;;;;;6.47;5.97;;;24.30;99.90;;;;;;4904344;28;20473;-76
2023/09/07 09:43:28;;;;;;;6.60;5.40;;;24.40;99.90;;;;;;4921692;28;20482;-75
2023/09/07 09:45:54;;;;;;;6.93;6.33;;;24.60;99.90;;;;;;4922829;28;20500;-76
2023/09/07 09:48:20;;;;;;;8.40;5.80;;;24.70;99.90;;;;;;4936060;28;20578;-76
2023/09/07 09:50:50;;;;;;;8.03;7.27;;;24.70;99.90;;;;;;4904078;28;20485;-75
2023/09/07 09:53:20;;;;;;;6.60;6.00;;;24.60;99.90;;;;;;4923149;28;20241;-76
2023/09/07 09:55:47;;;;;;;6.40;5.90;;;24.80;99.90;;;;;;4920068;28;20478;-76
2023/09/07 09:58:13;;;;;;;6.23;5.63;;;24.80;99.90;;;;;;4936628;28;20481;-75
2023/09/07 10:00:44;;;;;;;6.90;6.10;;;24.90;99.90;;;;;;4918028;28;20617;-75
2023/09/07 10:03:12;;;;;;;6.17;5.57;;;25.20;99.90;;;;;;4911479;28;20591;-76
2023/09/07 10:05:38;;;;;;;8.00;5.57;;;25.40;99.90;;;;;;4922589;28;20612;-75
2023/09/07 10:08:09;;;;;;;6.40;5.90;;;25.60;99.90;;;;;;4936666;28;20486;-76
2023/09/07 10:10:36;;;;;;;6.87;6.30;;;25.80;99.90;;;;;;4919419;28;20257;-75
2023/09/07 10:13:03;;;;;;;6.40;5.90;;;26.00;99.90;;;;;;4935732;28;20472;-76
2023/09/07 10:15:30;;;;;;;6.57;5.97;;;25.80;99.90;;;;;;4934446;28;20617;-76
2023/09/07 10:18:11;;;;;;;6.63;6.00;;;25.70;99.90;;;;;;4919895;28;20466;-77
2023/09/07 10:20:58;;;;;;;5.90;5.40;;;25.80;99.90;;;;;;4940460;28;20481;-76
2023/09/07 10:23:34;;;;;;;6.17;5.50;;;26.10;99.90;;;;;;4918762;28;20627;-76
2023/09/07 10:26:00;;;;;;;6.70;5.60;;;26.30;99.90;;;;;;4925533;28;20481;-77
2023/09/07 10:28:26;;;;;;;5.93;5.43;;;26.30;99.90;;;;;;4935022;28;20512;-76
2023/09/07 10:31:19;;;;;;;6.57;5.90;;;26.20;99.90;;;;;;4933699;28;20235;-75
2023/09/07 10:33:45;;;;;;;6.20;5.70;;;26.20;99.90;;;;;;4916869;28;20241;-76
2023/09/07 10:36:25;;;;;;;7.13;6.43;;;26.20;99.90;;;;;;4924844;28;20481;-76
2023/09/07 10:38:55;;;;;;;6.50;6.00;;;26.20;99.90;;;;;;4920722;28;20606;-77
2023/09/07 10:41:21;;;;;;;7.17;6.10;;;26.10;99.90;;;;;;4916699;28;20477;-77
2023/09/07 10:43:49;;;;;;;9.30;6.50;;;26.00;99.90;;;;;;4920033;28;20234;-76
2023/09/07 10:46:18;;;;;;;6.60;6.10;;;25.80;99.90;;;;;;4919846;28;20488;-76
2023/09/07 10:48:43;;;;;;;6.00;5.50;;;26.20;99.90;;;;;;4909174;28;20477;-76
2023/09/07 10:51:09;;;;;;;6.27;5.77;;;26.30;99.90;;;;;;4909631;28;20500;-76
2023/09/07 10:53:35;;;;;;;6.70;6.20;;;26.40;99.90;;;;;;4944295;28;20236;-76
2023/09/07 10:56:05;;;;;;;6.23;5.73;;;26.20;99.90;;;;;;4918432;28;20952;-76
2023/09/07 10:58:35;;;;;;;6.40;5.90;;;26.30;99.90;;;;;;4929300;28;20230;-77
2023/09/07 11:01:05;;;;;;;5.90;5.33;;;26.50;99.90;;;;;;4934132;28;20476;-77
2023/09/07 11:03:31;;;;;;;5.80;5.30;;;26.50;99.90;;;;;;4918454;28;20484;-76
2023/09/07 11:06:03;;;;;;;6.27;5.67;;;26.60;99.90;;;;;;4933403;28;20473;-76
2023/09/07 11:08:30;;;;;;;6.23;5.73;;;26.70;99.90;;;;;;4933937;28;20477;-75
2023/09/07 11:10:55;;;;;;;6.70;6.20;;;27.00;99.90;;;;;;4934047;28;20582;-76
2023/09/07 11:13:25;;;;;;;5.60;5.20;;;27.30;99.90;;;;;;4908038;28;20932;-77
2023/09/07 11:15:54;;;;;;;5.70;5.20;;;27.20;99.90;;;;;;4918260;28;20714;-75
2023/09/07 11:18:21;;;;;;;6.60;5.80;;;27.10;99.90;;;;;;4935620;28;20225;-75
2023/09/07 11:20:48;;;;;;;6.20;5.70;;;27.00;99.90;;;;;;4902775;28;20477;-75
2023/09/07 11:23:14;;;;;;;6.10;5.50;;;27.20;99.90;;;;;;4918337;28;20600;-76
2023/09/07 11:25:40;;;;;;;5.43;5.03;;;27.10;99.90;;;;;;4917556;28;20244;-77
2023/09/07 11:28:06;;;;;;;6.10;5.60;;;26.80;99.90;;;;;;4918876;28;20353;-76
2023/09/07 11:30:35;;;;;;;5.77;5.27;;;26.70;99.90;;;;;;4915948;28;20230;-76
2023/09/07 11:33:06;;;;;;;5.70;5.20;;;27.00;99.90;;;;;;4930613;28;20226;-77
2023/09/07 11:35:33;;;;;;;7.10;5.90;;;27.40;99.90;;;;;;4917271;28;20510;-77
2023/09/07 11:38:00;;;;;;;5.93;5.43;;;27.40;99.90;;;;;;4929940;28;20230;-77
2023/09/07 11:40:26;;;;;;;7.45;6.18;;;27.30;99.90;;;;;;4916063;28;20241;-76
2023/09/07 11:42:52;;;;;;;5.97;5.47;;;27.50;99.90;;;;;;4909776;28;20225;-76
2023/09/07 11:45:19;;;;;;;6.03;5.53;;;27.80;99.90;;;;;;4918948;28;20340;-77
2023/09/07 11:47:45;;;;;;;6.43;5.60;;;27.50;99.90;;;;;;4919962;28;20226;-77
2023/09/07 11:50:10;;;;;;;5.57;5.07;;;27.20;99.90;;;;;;4921718;28;20225;-77
2023/09/07 11:52:36;;;;;;;6.40;5.90;;;27.10;99.90;;;;;;4933161;28;20599;-77
2023/09/07 11:55:03;;;;;;;5.83;5.33;;;27.00;99.90;;;;;;4934211;28;20275;-75
2023/09/07 11:57:29;;;;;;;5.27;4.87;;;27.20;99.90;;;;;;4893654;28;20256;-77
2023/09/07 11:59:55;;;;;;;5.80;5.30;;;27.30;99.90;;;;;;4926229;28;20240;-76
2023/09/07 12:02:21;;;;;;;6.05;5.55;;;27.60;99.90;;;;;;4927432;28;20213;-76
2023/09/07 12:04:48;;;;;;;5.93;5.43;;;27.60;99.90;;;;;;4917852;28;21067;-77
2023/09/07 12:07:14;;;;;;;5.70;5.30;;;27.30;99.90;;;;;;4929895;28;20252;-77
2023/09/07 12:09:40;;;;;;;5.68;5.18;;;27.30;99.80;;;;;;4918159;28;20229;-77
2023/09/07 12:12:06;;;;;;;6.07;5.47;;;27.40;99.90;;;;;;4923621;28;20228;-78
2023/09/07 12:14:32;;;;;;;6.80;5.65;;;27.50;99.90;;;;;;4934717;28;20229;-76
2023/09/07 12:16:57;;;;;;;6.60;5.47;;;27.60;99.80;;;;;;4921664;28;20357;-77
2023/09/07 12:19:23;;;;;;;6.32;5.72;;;27.60;99.60;;;;;;4937156;28;20222;-76
2023/09/07 12:21:51;;;;;;;5.47;5.07;;;27.50;99.50;;;;;;4921909;28;20310;-76
2023/09/07 12:24:17;;;;;;;6.03;5.53;;;27.80;99.80;;;;;;4937325;28;20277;-76
2023/09/07 12:26:43;;;;;;;5.80;5.35;;;28.00;99.50;;;;;;4922180;28;20237;-76
2023/09/07 12:29:08;;;;;;;5.80;5.20;;;28.10;99.70;;;;;;4938334;28;20264;-77
2023/09/07 12:31:34;;;;;;;6.13;5.53;;;27.90;99.00;;;;;;4921414;28;20226;-77
2023/09/07 12:34:00;;;;;;;6.20;5.70;;;27.90;99.50;;;;;;4923167;28;20308;-75
2023/09/07 12:36:29;;;;;;;6.25;5.68;;;28.00;99.40;;;;;;4923347;28;20312;-76
2023/09/07 12:39:01;;;;;;;5.82;5.30;;;28.20;99.10;;;;;;4921944;28;20291;-78
2023/09/07 12:41:28;;;;;;;6.35;5.85;;;28.50;99.60;;;;;;4921683;28;20967;-77
2023/09/07 12:43:54;;;;;;;5.57;5.00;;;28.50;99.40;;;;;;4939070;28;20233;-77